createdAt,value
2017-11-27T05:00:57.208Z,0
2017-11-27T05:01:22.722Z,0
2017-11-27T05:01:48.193Z,0
2017-11-27T05:02:13.684Z,0
2017-11-27T05:02:39.177Z,0
2017-11-27T05:03:04.667Z,0
2017-11-27T05:03:30.165Z,0
2017-11-27T05:03:55.654Z,0
2017-11-27T05:04:21.144Z,0
2017-11-27T05:04:46.624Z,0
2017-11-27T05:05:12.079Z,0
2017-11-27T05:05:37.584Z,0
2017-11-27T05:06:03.078Z,0
2017-11-27T05:06:28.568Z,0
2017-11-27T05:06:54.056Z,0
2017-11-27T05:07:19.556Z,0
2017-11-27T05:07:45.040Z,0
2017-11-27T05:08:10.492Z,0
2017-11-27T05:08:35.984Z,0
2017-11-27T05:09:01.498Z,0
2017-11-27T05:09:27.039Z,0
2017-11-27T05:09:52.501Z,0
2017-11-27T05:10:18.039Z,0
2017-11-27T05:10:43.577Z,0
2017-11-27T05:11:09.053Z,0
2017-11-27T05:11:34.558Z,0
2017-11-27T05:12:00.019Z,0
2017-11-27T05:12:25.486Z,0
2017-11-27T05:12:51.004Z,0
2017-11-27T05:13:16.473Z,0
2017-11-27T05:13:41.971Z,0
2017-11-27T05:14:07.477Z,0
2017-11-27T05:14:32.934Z,0
2017-11-27T05:14:58.440Z,0
2017-11-27T05:15:23.910Z,0
2017-11-27T05:15:49.385Z,0
2017-11-27T05:16:14.894Z,0
2017-11-27T05:16:40.395Z,0
2017-11-27T05:17:05.888Z,0
2017-11-27T05:18:35.053Z,0
2017-11-27T05:19:00.535Z,0
2017-11-27T05:19:26.044Z,0
2017-11-27T05:19:51.512Z,0
2017-11-27T05:20:17.010Z,0
2017-11-27T05:20:42.513Z,0
2017-11-27T05:21:08.007Z,0
2017-11-27T05:21:33.509Z,0
2017-11-27T05:21:59.005Z,0
2017-11-27T05:22:24.468Z,0
2017-11-27T05:22:49.971Z,0
2017-11-27T05:23:15.477Z,0
2017-11-27T05:23:40.898Z,0
2017-11-27T05:24:06.408Z,0
2017-11-27T05:24:31.874Z,0
2017-11-27T05:24:57.370Z,0
2017-11-27T05:25:22.859Z,0
2017-11-27T05:25:48.372Z,0
2017-11-27T05:26:13.879Z,0
2017-11-27T05:26:39.333Z,0
2017-11-27T05:27:04.821Z,0
2017-11-27T05:27:30.316Z,0
2017-11-27T05:27:55.812Z,0
2017-11-27T05:28:21.299Z,0
2017-11-27T05:28:46.770Z,0
2017-11-27T05:29:12.241Z,0
2017-11-27T05:29:37.759Z,0
2017-11-27T05:30:03.248Z,0
2017-11-27T05:30:28.737Z,0
2017-11-27T05:30:54.239Z,0
2017-11-27T05:31:19.797Z,0
2017-11-27T05:31:45.278Z,0
2017-11-27T05:32:10.754Z,0
2017-11-27T05:32:36.242Z,0
2017-11-27T05:33:01.726Z,0
2017-11-27T05:33:27.210Z,0
2017-11-27T05:33:52.748Z,0
2017-11-27T05:34:18.208Z,0
2017-11-27T05:34:43.702Z,0
2017-11-27T05:35:09.206Z,0
2017-11-27T05:35:34.709Z,0
2017-11-27T05:36:00.245Z,0
2017-11-27T05:36:25.715Z,0
2017-11-27T05:36:51.197Z,0
2017-11-27T05:37:16.685Z,0
2017-11-27T05:37:42.195Z,0
2017-11-27T05:38:07.683Z,0
2017-11-27T05:38:33.140Z,0
2017-11-27T05:38:58.666Z,0
2017-11-27T05:39:24.196Z,0
2017-11-27T05:39:49.674Z,0
2017-11-27T05:40:15.187Z,0
2017-11-27T05:40:40.642Z,0
2017-11-27T05:41:06.129Z,0
2017-11-27T05:41:31.638Z,0
2017-11-27T05:41:57.177Z,0
2017-11-27T05:42:22.687Z,0
2017-11-27T05:42:48.181Z,0
2017-11-27T05:43:13.698Z,0
2017-11-27T05:43:39.221Z,0
2017-11-27T05:44:04.689Z,0
2017-11-27T05:44:30.183Z,0
2017-11-27T05:44:55.669Z,0
2017-11-27T05:45:21.104Z,0
2017-11-27T05:45:46.623Z,0
2017-11-27T05:46:12.110Z,0
2017-11-27T05:46:37.596Z,0
2017-11-27T05:47:03.092Z,0
2017-11-27T05:47:28.594Z,0
2017-11-27T05:47:54.064Z,0
2017-11-27T05:48:19.547Z,0
2017-11-27T05:48:45.045Z,0
2017-11-27T05:49:10.542Z,0
2017-11-27T05:49:36.038Z,0
2017-11-27T05:50:01.493Z,0
2017-11-27T05:50:26.967Z,0
2017-11-27T05:50:52.436Z,0
2017-11-27T05:51:17.906Z,0
2017-11-27T05:51:43.392Z,0
2017-11-27T05:52:08.902Z,0
2017-11-27T05:52:34.397Z,0
2017-11-27T05:52:59.890Z,0
2017-11-27T05:53:25.358Z,0
2017-11-27T05:53:50.823Z,0
2017-11-27T05:54:16.316Z,0
2017-11-27T05:54:41.778Z,0
2017-11-27T05:55:07.266Z,0
2017-11-27T05:55:32.778Z,0
2017-11-27T05:55:58.287Z,0
2017-11-27T05:56:23.779Z,0
2017-11-27T05:56:49.286Z,0
2017-11-27T05:57:14.724Z,0
2017-11-27T05:57:40.212Z,0
2017-11-27T05:58:05.711Z,0
2017-11-27T05:58:31.191Z,0
2017-11-27T05:58:56.684Z,0
2017-11-27T05:59:22.223Z,0
2017-11-27T05:59:47.696Z,0
2017-11-27T06:00:13.176Z,0
2017-11-27T06:00:38.688Z,0
2017-11-27T06:01:04.137Z,0
2017-11-27T06:01:29.679Z,0
2017-11-27T06:01:55.153Z,0
2017-11-27T06:02:20.668Z,0
2017-11-27T06:02:46.174Z,0
2017-11-27T06:03:11.654Z,0
2017-11-27T06:03:37.155Z,0
2017-11-27T06:04:02.632Z,0
2017-11-27T06:04:28.077Z,0
2017-11-27T06:04:53.589Z,0
2017-11-27T06:05:19.072Z,0
2017-11-27T06:05:44.525Z,0
2017-11-27T06:06:10.078Z,0
2017-11-27T06:06:35.555Z,0
2017-11-27T06:07:01.064Z,0
2017-11-27T06:07:26.515Z,0
2017-11-27T06:07:52.015Z,0
2017-11-27T06:08:17.479Z,0
2017-11-27T06:08:42.995Z,0
2017-11-27T06:09:08.484Z,0
2017-11-27T06:09:33.952Z,0
2017-11-27T06:09:59.432Z,0
2017-11-27T06:10:24.949Z,0
2017-11-27T06:10:50.412Z,0
2017-11-27T06:11:15.899Z,0
2017-11-27T06:11:41.374Z,0
2017-11-27T06:12:06.863Z,0
2017-11-27T06:12:32.346Z,0
2017-11-27T06:12:57.842Z,0
2017-11-27T06:13:23.335Z,0
2017-11-27T06:13:48.822Z,0
2017-11-27T06:14:14.290Z,0
2017-11-27T06:14:39.777Z,0
2017-11-27T06:15:05.288Z,0
2017-11-27T06:15:30.755Z,0
2017-11-27T06:15:56.238Z,0
2017-11-27T06:16:21.722Z,0
2017-11-27T06:16:47.185Z,0
2017-11-27T06:17:12.689Z,0
2017-11-27T06:17:38.146Z,0
2017-11-27T06:18:03.655Z,0
2017-11-27T06:18:29.145Z,0
2017-11-27T06:18:54.617Z,0
2017-11-27T06:19:20.118Z,0
2017-11-27T06:19:45.608Z,0
2017-11-27T06:20:11.092Z,0
2017-11-27T06:20:36.598Z,0
2017-11-27T06:21:02.052Z,0
2017-11-27T06:21:27.524Z,0
2017-11-27T06:21:53.067Z,0
2017-11-27T06:22:18.545Z,0
2017-11-27T06:22:44.048Z,0
2017-11-27T06:23:09.525Z,0
2017-11-27T06:23:35.029Z,0
2017-11-27T06:24:00.510Z,0
2017-11-27T06:24:25.972Z,0
2017-11-27T06:24:51.442Z,0
2017-11-27T06:25:16.945Z,0
2017-11-27T06:25:42.422Z,0
2017-11-27T06:26:07.923Z,0
2017-11-27T06:26:33.474Z,0
2017-11-27T06:26:58.953Z,0
2017-11-27T06:27:24.433Z,0
2017-11-27T06:27:49.925Z,0
2017-11-27T06:28:15.431Z,0
2017-11-27T06:28:40.936Z,0
2017-11-27T06:29:06.423Z,0
2017-11-27T06:29:31.884Z,0
2017-11-27T06:29:57.367Z,0
2017-11-27T06:30:22.871Z,0
2017-11-27T06:30:48.377Z,0
2017-11-27T06:31:13.882Z,0
2017-11-27T06:31:39.387Z,0
2017-11-27T06:32:04.888Z,0
2017-11-27T06:32:30.393Z,0
2017-11-27T06:32:55.818Z,0
2017-11-27T06:33:21.311Z,0
2017-11-27T06:33:46.809Z,0
2017-11-27T06:34:12.308Z,0
2017-11-27T06:34:37.804Z,0
2017-11-27T06:35:03.284Z,0
2017-11-27T06:35:28.764Z,0
2017-11-27T06:35:54.269Z,0
2017-11-27T06:37:02.999Z,0
2017-11-27T06:37:28.498Z,0
2017-11-27T06:37:53.978Z,0
2017-11-27T06:38:19.464Z,0
2017-11-27T06:38:44.960Z,0
2017-11-27T06:39:10.459Z,0
2017-11-27T06:39:35.973Z,0
2017-11-27T06:40:01.453Z,0
2017-11-27T06:40:26.942Z,0
2017-11-27T06:40:52.483Z,0
2017-11-27T06:41:17.945Z,0
2017-11-27T06:41:43.431Z,0
2017-11-27T06:42:08.899Z,0
2017-11-27T06:42:34.402Z,0
2017-11-27T06:42:59.898Z,0
2017-11-27T06:43:25.414Z,0
2017-11-27T06:43:50.901Z,0
2017-11-27T06:44:16.403Z,0
2017-11-27T06:44:41.884Z,0
2017-11-27T06:45:07.408Z,0
2017-11-27T06:45:32.885Z,0
2017-11-27T06:45:58.333Z,0
2017-11-27T06:46:23.848Z,0
2017-11-27T06:46:49.411Z,0
2017-11-27T06:47:14.924Z,0
2017-11-27T06:47:40.389Z,0
2017-11-27T06:48:05.912Z,0
2017-11-27T06:48:31.380Z,0
2017-11-27T06:48:56.898Z,0
2017-11-27T06:49:22.389Z,0
2017-11-27T06:49:47.864Z,0
2017-11-27T06:50:13.375Z,0
2017-11-27T06:50:38.855Z,0
2017-11-27T06:51:04.319Z,0
2017-11-27T06:51:29.803Z,0
2017-11-27T06:51:55.302Z,0
2017-11-27T06:52:20.783Z,0
2017-11-27T06:52:46.302Z,0
2017-11-27T06:53:11.796Z,0
2017-11-27T06:53:37.259Z,0
2017-11-27T06:54:02.739Z,0
2017-11-27T06:54:28.206Z,0
2017-11-27T06:54:53.710Z,0
2017-11-27T06:55:19.164Z,0
2017-11-27T06:55:44.674Z,0
2017-11-27T06:56:10.149Z,0
2017-11-27T06:56:35.642Z,0
2017-11-27T06:57:01.112Z,0
2017-11-27T06:57:26.653Z,0
2017-11-27T06:57:52.137Z,0
2017-11-27T06:58:17.636Z,0
2017-11-27T06:58:43.120Z,0
2017-11-27T06:59:08.623Z,0
2017-11-27T06:59:34.127Z,0
2017-11-27T06:59:59.599Z,0
2017-11-27T07:00:25.045Z,0
2017-11-27T07:00:50.565Z,0
2017-11-27T07:01:16.053Z,0
2017-11-27T07:01:41.544Z,0
2017-11-27T07:02:07.069Z,0
2017-11-27T07:02:32.547Z,0
2017-11-27T07:02:58.042Z,0
2017-11-27T07:03:23.524Z,0
2017-11-27T07:03:49.003Z,0
2017-11-27T07:04:14.489Z,0
2017-11-27T07:04:39.980Z,0
2017-11-27T07:05:05.461Z,0
2017-11-27T07:05:30.934Z,0
2017-11-27T07:05:56.400Z,0
2017-11-27T07:06:21.889Z,0
2017-11-27T07:06:47.366Z,0
2017-11-27T07:07:12.900Z,0
2017-11-27T07:07:38.394Z,0
2017-11-27T07:08:03.900Z,0
2017-11-27T07:08:29.409Z,0
2017-11-27T07:08:54.890Z,0
2017-11-27T07:09:20.393Z,0
2017-11-27T07:10:49.477Z,0
2017-11-27T07:11:14.956Z,0
2017-11-27T07:11:40.445Z,0
2017-11-27T07:12:05.938Z,0
2017-11-27T07:12:31.440Z,0
2017-11-27T07:12:56.906Z,5
2017-11-27T07:13:22.429Z,5
2017-11-27T07:13:47.885Z,5
2017-11-27T07:14:13.381Z,5
2017-11-27T07:14:38.850Z,5
2017-11-27T07:15:04.347Z,5
2017-11-27T07:15:29.820Z,5
2017-11-27T07:15:55.269Z,5
2017-11-27T07:16:20.747Z,5
2017-11-27T07:16:46.212Z,5
2017-11-27T07:17:11.680Z,5
2017-11-27T07:17:37.151Z,5
2017-11-27T07:18:02.648Z,5
2017-11-27T07:18:28.104Z,5
2017-11-27T07:18:53.574Z,5
2017-11-27T07:19:19.057Z,5
2017-11-27T07:19:44.552Z,5
2017-11-27T07:20:10.043Z,5
2017-11-27T07:20:35.513Z,5
2017-11-27T07:21:01.026Z,5
2017-11-27T07:21:26.518Z,10
2017-11-27T07:21:51.983Z,10
2017-11-27T07:22:17.489Z,10
2017-11-27T07:22:43.002Z,10
2017-11-27T07:23:08.487Z,10
2017-11-27T07:23:33.964Z,10
2017-11-27T07:23:59.488Z,10
2017-11-27T07:24:24.957Z,10
2017-11-27T07:24:50.465Z,10
2017-11-27T07:25:15.947Z,10
2017-11-27T07:25:41.410Z,10
2017-11-27T07:26:06.895Z,10
2017-11-27T07:26:32.376Z,10
2017-11-27T07:26:57.867Z,10
2017-11-27T07:27:23.370Z,10
2017-11-27T07:27:48.909Z,10
2017-11-27T07:28:14.414Z,15
2017-11-27T07:28:39.823Z,15
2017-11-27T07:29:05.300Z,15
2017-11-27T07:29:30.745Z,15
2017-11-27T07:29:56.210Z,15
2017-11-27T07:30:21.742Z,15
2017-11-27T07:30:47.188Z,15
2017-11-27T07:31:12.667Z,15
2017-11-27T07:31:38.162Z,15
2017-11-27T07:32:03.587Z,15
2017-11-27T07:32:29.072Z,15
2017-11-27T07:32:54.562Z,15
2017-11-27T07:33:20.018Z,15
2017-11-27T07:33:45.497Z,20
2017-11-27T07:34:11.007Z,20
2017-11-27T07:34:36.419Z,20
2017-11-27T07:35:01.917Z,15
2017-11-27T07:35:27.353Z,20
2017-11-27T07:35:52.874Z,20
2017-11-27T07:36:18.240Z,20
2017-11-27T07:36:43.717Z,15
2017-11-27T07:37:09.216Z,20
2017-11-27T07:37:34.643Z,20
2017-11-27T07:38:00.120Z,20
2017-11-27T07:38:25.552Z,20
2017-11-27T07:38:51.019Z,20
2017-11-27T07:39:16.496Z,15
2017-11-27T07:39:41.959Z,15
2017-11-27T07:40:07.452Z,15
2017-11-27T07:40:32.971Z,15
2017-11-27T07:40:58.444Z,15
2017-11-27T07:41:23.895Z,15
2017-11-27T07:41:49.337Z,15
2017-11-27T07:42:14.847Z,15
2017-11-27T07:42:40.354Z,15
2017-11-27T07:43:05.774Z,15
2017-11-27T07:43:31.315Z,15
2017-11-27T07:43:56.748Z,15
2017-11-27T07:44:22.197Z,15
2017-11-27T07:44:47.665Z,15
2017-11-27T07:45:13.171Z,15
2017-11-27T07:45:38.579Z,15
2017-11-27T07:46:04.099Z,15
2017-11-27T07:46:29.562Z,15
2017-11-27T07:46:55.005Z,15
2017-11-27T07:47:20.459Z,15
2017-11-27T07:47:45.952Z,15
2017-11-27T07:48:11.426Z,15
2017-11-27T07:48:36.916Z,15
2017-11-27T07:49:02.389Z,15
2017-11-27T07:49:27.855Z,15
2017-11-27T07:49:53.275Z,15
2017-11-27T07:50:18.743Z,15
2017-11-27T07:50:44.230Z,15
2017-11-27T07:51:09.649Z,10
2017-11-27T07:51:35.136Z,10
2017-11-27T07:52:00.599Z,15
2017-11-27T07:52:26.093Z,15
2017-11-27T07:52:51.575Z,15
2017-11-27T07:53:17.021Z,15
2017-11-27T07:53:42.484Z,15
2017-11-27T07:54:07.966Z,15
2017-11-27T07:54:33.477Z,10
2017-11-27T07:54:58.908Z,15
2017-11-27T07:55:24.364Z,15
2017-11-27T07:55:49.850Z,15
2017-11-27T07:56:15.306Z,15
2017-11-27T07:56:40.752Z,15
2017-11-27T07:57:06.271Z,15
2017-11-27T07:57:31.776Z,15
2017-11-27T07:57:57.255Z,15
2017-11-27T07:58:22.771Z,15
2017-11-27T07:58:48.242Z,15
2017-11-27T08:00:12.288Z,15
2017-11-27T08:00:37.771Z,15
2017-11-27T08:01:03.250Z,15
2017-11-27T08:01:28.699Z,15
2017-11-27T08:01:54.192Z,15
2017-11-27T08:02:19.648Z,15
2017-11-27T08:02:45.181Z,15
2017-11-27T08:03:10.641Z,15
2017-11-27T08:03:36.081Z,15
2017-11-27T08:04:01.595Z,15
2017-11-27T08:04:26.997Z,15
2017-11-27T08:04:52.506Z,15
2017-11-27T08:05:18.009Z,15
2017-11-27T08:05:43.498Z,15
2017-11-27T08:06:08.975Z,15
2017-11-27T08:06:34.422Z,15
2017-11-27T08:06:59.851Z,15
2017-11-27T08:07:25.314Z,15
2017-11-27T08:07:50.806Z,15
2017-11-27T08:08:16.247Z,15
2017-11-27T08:08:41.727Z,15
2017-11-27T08:09:07.187Z,15
2017-11-27T08:09:32.689Z,20
2017-11-27T08:09:58.142Z,20
2017-11-27T08:10:23.603Z,15
2017-11-27T08:10:49.083Z,15
2017-11-27T08:11:14.600Z,20
2017-11-27T08:11:40.067Z,20
2017-11-27T08:12:05.579Z,20
2017-11-27T08:12:31.057Z,20
2017-11-27T08:12:56.477Z,20
2017-11-27T08:13:22.050Z,20
2017-11-27T08:13:47.676Z,20
2017-11-27T08:14:13.295Z,20
2017-11-27T08:14:38.765Z,20
2017-11-27T08:15:04.388Z,20
2017-11-27T08:15:30.030Z,20
2017-11-27T08:15:55.586Z,15
2017-11-27T08:16:21.177Z,15
2017-11-27T08:16:46.799Z,15
2017-11-27T08:17:12.323Z,15
2017-11-27T08:17:37.756Z,15
2017-11-27T08:18:03.359Z,15
2017-11-27T08:18:28.996Z,15
2017-11-27T08:18:54.665Z,15
2017-11-27T08:19:20.183Z,20
2017-11-27T08:19:45.686Z,15
2017-11-27T08:20:11.201Z,15
2017-11-27T08:20:36.756Z,15
2017-11-27T08:21:02.300Z,15
2017-11-27T08:21:27.700Z,15
2017-11-27T08:21:53.251Z,15
2017-11-27T08:22:18.717Z,15
2017-11-27T08:22:44.199Z,15
2017-11-27T08:23:09.636Z,15
2017-11-27T08:23:35.133Z,15
2017-11-27T08:24:00.573Z,15
2017-11-27T08:24:26.093Z,15
2017-11-27T08:24:51.590Z,15
2017-11-27T08:25:17.112Z,15
2017-11-27T08:25:42.616Z,10
2017-11-27T08:26:08.145Z,15
2017-11-27T08:26:33.616Z,15
2017-11-27T08:26:59.108Z,15
2017-11-27T08:27:24.583Z,15
2017-11-27T08:27:50.044Z,15
2017-11-27T08:28:15.512Z,15
2017-11-27T08:28:40.991Z,15
2017-11-27T08:29:06.496Z,10
2017-11-27T08:29:31.989Z,15
2017-11-27T08:29:57.508Z,15
2017-11-27T08:30:22.999Z,15
2017-11-27T08:30:48.501Z,15
2017-11-27T08:31:13.982Z,15
2017-11-27T08:31:39.438Z,15
2017-11-27T08:32:04.924Z,15
2017-11-27T08:32:30.418Z,15
2017-11-27T08:32:55.925Z,15
2017-11-27T08:33:21.401Z,15
2017-11-27T08:33:46.903Z,15
2017-11-27T08:34:12.374Z,15
2017-11-27T08:34:37.879Z,15
2017-11-27T08:35:03.389Z,15
2017-11-27T08:35:28.866Z,15
2017-11-27T08:35:54.353Z,15
2017-11-27T08:36:19.879Z,15
2017-11-27T08:36:45.368Z,15
2017-11-27T08:37:10.891Z,15
2017-11-27T08:37:36.374Z,15
2017-11-27T08:38:01.842Z,15
2017-11-27T08:38:27.300Z,15
2017-11-27T08:38:52.780Z,15
2017-11-27T08:39:18.262Z,15
2017-11-27T08:39:43.731Z,15
2017-11-27T08:40:09.227Z,15
2017-11-27T08:40:34.757Z,15
2017-11-27T08:41:00.197Z,15
2017-11-27T08:41:25.662Z,15
2017-11-27T08:41:51.142Z,15
2017-11-27T08:42:16.644Z,20
2017-11-27T08:42:42.147Z,20
2017-11-27T08:43:07.590Z,15
2017-11-27T08:43:33.073Z,20
2017-11-27T08:43:58.581Z,20
2017-11-27T08:44:24.078Z,20
2017-11-27T08:44:49.591Z,20
2017-11-27T08:45:15.084Z,25
2017-11-27T08:45:40.577Z,25
2017-11-27T08:46:06.081Z,25
2017-11-27T08:46:31.560Z,25
2017-11-27T08:46:57.089Z,25
2017-11-27T08:47:22.524Z,20
2017-11-27T08:47:48.066Z,25
2017-11-27T08:48:13.558Z,25
2017-11-27T08:48:39.044Z,20
2017-11-27T08:49:04.523Z,20
2017-11-27T08:49:30.019Z,15
2017-11-27T08:49:55.505Z,20
2017-11-27T08:50:20.992Z,20
2017-11-27T08:50:46.531Z,20
2017-11-27T08:51:12.025Z,20
2017-11-27T08:51:37.536Z,25
2017-11-27T08:52:03.008Z,20
2017-11-27T08:52:28.503Z,20
2017-11-27T08:52:53.989Z,20
2017-11-27T08:53:19.471Z,25
2017-11-27T08:53:44.952Z,25
2017-11-27T08:54:10.416Z,20
2017-11-27T08:54:35.889Z,20
2017-11-27T08:55:01.396Z,25
2017-11-27T08:55:26.887Z,25
2017-11-27T08:55:52.361Z,20
2017-11-27T08:56:17.854Z,25
2017-11-27T08:56:43.363Z,25
2017-11-27T08:57:08.855Z,25
2017-11-27T08:57:34.372Z,25
2017-11-27T08:57:59.851Z,25
2017-11-27T08:58:25.346Z,25
2017-11-27T08:58:50.843Z,30
2017-11-27T08:59:16.354Z,35
2017-11-27T08:59:41.828Z,35
2017-11-27T09:00:07.341Z,35
2017-11-27T09:00:32.837Z,30
2017-11-27T09:00:58.340Z,25
2017-11-27T09:01:23.870Z,30
2017-11-27T09:01:49.372Z,25
2017-11-27T09:02:14.889Z,30
2017-11-27T09:02:40.399Z,35
2017-11-27T09:03:05.893Z,35
2017-11-27T09:03:31.425Z,30
2017-11-27T09:03:56.890Z,30
2017-11-27T09:04:22.382Z,35
2017-11-27T09:04:47.856Z,40
2017-11-27T09:05:13.352Z,50
2017-11-27T09:05:38.819Z,55
2017-11-27T09:06:04.321Z,50
2017-11-27T09:06:29.796Z,40
2017-11-27T09:06:55.306Z,35
2017-11-27T09:07:20.816Z,30
2017-11-27T09:07:46.310Z,25
2017-11-27T09:08:11.784Z,20
2017-11-27T09:08:37.254Z,20
2017-11-27T09:09:02.755Z,25
2017-11-27T09:09:28.300Z,30
2017-11-27T09:09:53.796Z,20
2017-11-27T09:10:19.300Z,25
2017-11-27T09:10:44.784Z,25
2017-11-27T09:11:10.257Z,25
2017-11-27T09:11:35.754Z,25
2017-11-27T09:12:01.269Z,30
2017-11-27T09:12:26.776Z,35
2017-11-27T09:12:52.248Z,30
2017-11-27T09:13:17.766Z,25
2017-11-27T09:13:43.274Z,30
2017-11-27T09:14:08.774Z,30
2017-11-27T09:14:34.254Z,25
2017-11-27T09:14:59.737Z,30
2017-11-27T09:15:25.203Z,35
2017-11-27T09:15:50.696Z,35
2017-11-27T09:16:16.153Z,30
2017-11-27T09:16:41.666Z,35
2017-11-27T09:17:07.125Z,35
2017-11-27T09:17:32.636Z,35
2017-11-27T09:17:58.062Z,35
2017-11-27T09:18:23.578Z,35
2017-11-27T09:18:49.063Z,35
2017-11-27T09:19:14.499Z,45
2017-11-27T09:19:39.994Z,40
2017-11-27T09:20:05.454Z,40
2017-11-27T09:20:30.884Z,30
2017-11-27T09:20:56.345Z,25
2017-11-27T09:21:21.862Z,20
2017-11-27T09:21:47.294Z,25
2017-11-27T09:22:12.778Z,25
2017-11-27T09:22:38.215Z,20
2017-11-27T09:23:03.669Z,15
2017-11-27T09:23:29.195Z,20
2017-11-27T09:23:54.663Z,20
2017-11-27T09:24:20.111Z,20
2017-11-27T09:24:45.603Z,20
2017-11-27T09:25:11.075Z,20
2017-11-27T09:25:36.499Z,20
2017-11-27T09:26:02.009Z,20
2017-11-27T09:26:27.431Z,25
2017-11-27T09:26:52.921Z,30
2017-11-27T09:27:18.372Z,30
2017-11-27T09:27:43.849Z,30
2017-11-27T09:28:09.291Z,30
2017-11-27T09:28:34.771Z,40
2017-11-27T09:29:00.234Z,30
2017-11-27T09:29:25.704Z,30
2017-11-27T09:29:51.179Z,20
2017-11-27T09:30:16.677Z,20
2017-11-27T09:30:42.151Z,20
2017-11-27T09:31:07.611Z,20
2017-11-27T09:31:33.058Z,15
2017-11-27T09:31:58.585Z,15
2017-11-27T09:32:23.959Z,20
2017-11-27T09:32:49.422Z,20
2017-11-27T09:33:14.929Z,25
2017-11-27T09:33:40.379Z,25
2017-11-27T09:34:05.913Z,35
2017-11-27T09:34:31.381Z,30
2017-11-27T09:34:56.841Z,30
2017-11-27T09:35:22.297Z,30
2017-11-27T09:35:47.765Z,30
2017-11-27T09:36:13.283Z,25
2017-11-27T09:36:38.736Z,30
2017-11-27T09:37:04.225Z,35
2017-11-27T09:37:29.752Z,30
2017-11-27T09:37:55.201Z,25
2017-11-27T09:38:20.646Z,25
2017-11-27T09:38:46.105Z,20
2017-11-27T09:39:11.612Z,20
2017-11-27T09:39:37.041Z,25
2017-11-27T09:40:02.519Z,25
2017-11-27T09:40:27.945Z,25
2017-11-27T09:40:53.417Z,25
2017-11-27T09:41:18.878Z,25
2017-11-27T09:41:44.317Z,20
2017-11-27T09:42:09.822Z,30
2017-11-27T09:42:35.310Z,35
2017-11-27T09:43:00.810Z,30
2017-11-27T09:43:26.275Z,30
2017-11-27T09:43:51.713Z,30
2017-11-27T09:44:17.167Z,25
2017-11-27T09:44:42.615Z,30
2017-11-27T09:45:08.093Z,30
2017-11-27T09:45:33.588Z,35
2017-11-27T09:45:59.041Z,35
2017-11-27T09:46:24.508Z,30
2017-11-27T09:46:49.973Z,40
2017-11-27T09:47:15.446Z,35
2017-11-27T09:47:40.957Z,40
2017-11-27T09:48:06.430Z,35
2017-11-27T09:48:31.866Z,30
2017-11-27T09:48:57.356Z,25
2017-11-27T09:49:22.766Z,30
2017-11-27T09:49:48.253Z,30
2017-11-27T09:50:13.724Z,35
2017-11-27T09:50:39.185Z,35
2017-11-27T09:51:04.758Z,30
2017-11-27T09:51:30.184Z,25
2017-11-27T09:51:55.703Z,25
2017-11-27T09:52:21.121Z,25
2017-11-27T09:52:46.657Z,25
2017-11-27T09:53:12.092Z,25
2017-11-27T09:53:37.550Z,30
2017-11-27T09:54:03.016Z,35
2017-11-27T09:54:28.510Z,35
2017-11-27T09:54:54.001Z,30
2017-11-27T09:55:19.471Z,35
2017-11-27T09:55:44.969Z,30
2017-11-27T09:56:10.482Z,30
2017-11-27T09:56:35.878Z,25
2017-11-27T09:57:01.402Z,30
2017-11-27T09:57:26.805Z,35
2017-11-27T09:57:52.310Z,40
2017-11-27T09:58:17.827Z,35
2017-11-27T09:58:43.265Z,35
2017-11-27T09:59:08.800Z,30
2017-11-27T09:59:34.300Z,30
2017-11-27T09:59:59.747Z,30
2017-11-27T10:00:25.281Z,35
2017-11-27T10:00:50.672Z,30
2017-11-27T10:01:16.180Z,30
2017-11-27T10:01:41.635Z,25
2017-11-27T10:02:07.084Z,35
2017-11-27T10:02:32.547Z,30
2017-11-27T10:02:58.086Z,35
2017-11-27T10:03:23.562Z,40
2017-11-27T10:03:49.071Z,35
2017-11-27T10:04:14.519Z,30
2017-11-27T10:04:39.939Z,25
2017-11-27T10:05:05.398Z,30
2017-11-27T10:05:30.882Z,25
2017-11-27T10:05:56.319Z,25
2017-11-27T10:06:21.750Z,30
2017-11-27T10:06:47.259Z,30
2017-11-27T10:07:12.751Z,25
2017-11-27T10:07:38.187Z,30
2017-11-27T10:08:03.627Z,30
2017-11-27T10:08:29.107Z,30
2017-11-27T10:08:54.519Z,40
2017-11-27T10:09:20.060Z,45
2017-11-27T10:09:45.622Z,40
2017-11-27T10:10:11.025Z,35
2017-11-27T10:10:36.469Z,35
2017-11-27T10:11:01.966Z,45
2017-11-27T10:11:27.396Z,35
2017-11-27T10:11:52.888Z,40
2017-11-27T10:12:18.405Z,35
2017-11-27T10:12:43.833Z,40
2017-11-27T10:13:09.314Z,40
2017-11-27T10:13:34.772Z,40
2017-11-27T10:14:00.202Z,55
2017-11-27T10:14:25.663Z,45
2017-11-27T10:14:51.125Z,45
2017-11-27T10:15:16.589Z,50
2017-11-27T10:15:42.061Z,45
2017-11-27T10:16:07.475Z,35
2017-11-27T10:16:33.010Z,45
2017-11-27T10:16:58.517Z,45
2017-11-27T10:17:23.998Z,50
2017-11-27T10:17:49.486Z,45
2017-11-27T10:18:14.943Z,40
2017-11-27T10:18:40.445Z,45
2017-11-27T10:19:05.939Z,40
2017-11-27T10:19:31.399Z,45
2017-11-27T10:19:56.939Z,35
2017-11-27T10:20:22.368Z,35
2017-11-27T10:20:47.848Z,35
2017-11-27T10:21:13.352Z,50
2017-11-27T10:21:38.858Z,45
2017-11-27T10:22:04.367Z,45
2017-11-27T10:22:29.851Z,35
2017-11-27T10:22:55.307Z,40
2017-11-27T10:23:20.787Z,40
2017-11-27T10:23:46.255Z,35
2017-11-27T10:24:11.758Z,35
2017-11-27T10:24:37.236Z,35
2017-11-27T10:25:02.700Z,35
2017-11-27T10:25:28.164Z,30
2017-11-27T10:25:53.677Z,40
2017-11-27T10:26:19.200Z,35
2017-11-27T10:26:44.696Z,35
2017-11-27T10:27:10.177Z,35
2017-11-27T10:27:35.663Z,40
2017-11-27T10:28:01.105Z,40
2017-11-27T10:28:26.647Z,50
2017-11-27T10:28:52.087Z,45
2017-11-27T10:29:17.584Z,45
2017-11-27T10:29:43.100Z,50
2017-11-27T10:30:08.600Z,55
2017-11-27T10:30:34.062Z,60
2017-11-27T10:30:59.556Z,50
2017-11-27T10:31:25.063Z,50
2017-11-27T10:31:50.595Z,45
2017-11-27T10:32:16.087Z,40
2017-11-27T10:32:41.609Z,40
2017-11-27T10:33:07.094Z,55
2017-11-27T10:33:32.616Z,60
2017-11-27T10:33:58.109Z,45
2017-11-27T10:34:23.592Z,50
2017-11-27T10:34:49.072Z,60
2017-11-27T10:35:14.512Z,40
2017-11-27T10:35:39.994Z,45
2017-11-27T10:36:05.503Z,50
2017-11-27T10:36:30.999Z,45
2017-11-27T10:36:56.481Z,40
2017-11-27T10:37:21.974Z,55
2017-11-27T10:37:47.442Z,50
2017-11-27T10:38:12.959Z,55
2017-11-27T10:38:38.455Z,60
2017-11-27T10:39:03.982Z,65
2017-11-27T10:39:29.527Z,65
2017-11-27T10:39:54.996Z,55
2017-11-27T10:40:20.532Z,60
2017-11-27T10:40:46.066Z,65
2017-11-27T10:41:11.549Z,60
2017-11-27T10:41:37.039Z,65
2017-11-27T10:42:02.564Z,65
2017-11-27T10:42:28.020Z,65
2017-11-27T10:42:53.534Z,60
2017-11-27T10:43:19.089Z,65
2017-11-27T10:43:44.591Z,55
2017-11-27T10:44:10.092Z,55
2017-11-27T10:44:35.593Z,60
2017-11-27T10:45:01.068Z,65
2017-11-27T10:45:26.568Z,50
2017-11-27T10:45:52.035Z,55
2017-11-27T10:46:17.556Z,55
2017-11-27T10:46:43.053Z,65
2017-11-27T10:47:51.782Z,55
2017-11-27T10:48:17.280Z,60
2017-11-27T10:48:42.788Z,60
2017-11-27T10:49:08.267Z,60
2017-11-27T10:49:33.760Z,60
2017-11-27T10:49:59.232Z,60
2017-11-27T10:50:24.709Z,60
2017-11-27T10:50:50.184Z,70
2017-11-27T10:51:15.657Z,65
2017-11-27T10:51:41.125Z,70
2017-11-27T10:53:05.178Z,65
2017-11-27T10:53:30.683Z,65
2017-11-27T10:53:56.186Z,75
2017-11-27T10:54:21.746Z,65
2017-11-27T10:54:47.237Z,70
2017-11-27T10:55:12.769Z,70
2017-11-27T10:55:38.232Z,70
2017-11-27T10:56:03.672Z,55
2017-11-27T10:56:29.148Z,60
2017-11-27T10:56:54.669Z,65
2017-11-27T10:57:20.165Z,70
2017-11-27T10:57:45.673Z,55
2017-11-27T10:58:11.136Z,50
2017-11-27T10:58:36.653Z,55
2017-11-27T10:59:02.127Z,50
2017-11-27T10:59:27.650Z,50
2017-11-27T10:59:53.134Z,50
2017-11-27T11:00:18.610Z,65
2017-11-27T11:00:44.082Z,55
2017-11-27T11:01:09.612Z,50
2017-11-27T11:01:35.083Z,55
2017-11-27T11:02:00.560Z,45
2017-11-27T11:02:26.042Z,55
2017-11-27T11:02:51.537Z,65
2017-11-27T11:03:17.031Z,60
2017-11-27T11:03:42.523Z,60
2017-11-27T11:04:07.994Z,65
2017-11-27T11:04:33.526Z,65
2017-11-27T11:04:59.004Z,60
2017-11-27T11:05:24.520Z,55
2017-11-27T11:05:50.014Z,55
2017-11-27T11:06:15.498Z,55
2017-11-27T11:06:40.998Z,45
2017-11-27T11:07:06.520Z,50
2017-11-27T11:07:32.045Z,50
2017-11-27T11:07:57.513Z,45
2017-11-27T11:08:23.006Z,35
2017-11-27T11:08:48.493Z,40
2017-11-27T11:09:13.978Z,40
2017-11-27T11:09:39.481Z,35
2017-11-27T11:10:05.025Z,30
2017-11-27T11:10:30.532Z,35
2017-11-27T11:10:56.017Z,30
2017-11-27T11:11:21.519Z,30
2017-11-27T11:11:47.029Z,30
2017-11-27T11:12:12.500Z,35
2017-11-27T11:12:38.012Z,30
2017-11-27T11:13:03.518Z,25
2017-11-27T11:13:28.977Z,30
2017-11-27T11:13:54.468Z,30
2017-11-27T11:14:19.978Z,20
2017-11-27T11:14:45.497Z,25